sensor_id;sensor_type;location;lat;lon;timestamp;pressure;altitude;pressure_sealevel;temperature;humidity
21555;BME280;10938;44.794;-0.676;2023-02-04T00:00:05;103121.16;;;8.99;96.21
21555;BME280;10938;44.794;-0.676;2023-02-04T00:02:32;103119.97;;;8.94;96.35
21555;BME280;10938;44.794;-0.676;2023-02-04T00:04:57;103113.91;;;8.94;96.44
21555;BME280;10938;44.794;-0.676;2023-02-04T00:07:23;103112.81;;;8.90;96.70
21555;BME280;10938;44.794;-0.676;2023-02-04T00:09:49;103111.03;;;8.89;96.42
21555;BME280;10938;44.794;-0.676;2023-02-04T00:12:14;103110.22;;;8.90;95.96
21555;BME280;10938;44.794;-0.676;2023-02-04T00:14:43;103109.16;;;8.87;95.89
21555;BME280;10938;44.794;-0.676;2023-02-04T00:17:08;103101.06;;;8.82;96.32
21555;BME280;10938;44.794;-0.676;2023-02-04T00:19:35;103108.88;;;8.82;96.05
21555;BME280;10938;44.794;-0.676;2023-02-04T00:22:04;103106.19;;;8.81;95.67
21555;BME280;10938;44.794;-0.676;2023-02-04T00:24:31;103100.53;;;8.73;96.16
21555;BME280;10938;44.794;-0.676;2023-02-04T00:26:56;103100.63;;;8.74;96.06
21555;BME280;10938;44.794;-0.676;2023-02-04T00:29:22;103087.44;;;8.71;96.11
21555;BME280;10938;44.794;-0.676;2023-02-04T00:31:47;103097.75;;;8.70;95.65
21555;BME280;10938;44.794;-0.676;2023-02-04T00:34:12;103090.41;;;8.63;95.89
21555;BME280;10938;44.794;-0.676;2023-02-04T00:36:38;103085.22;;;8.63;95.64
21555;BME280;10938;44.794;-0.676;2023-02-04T00:39:03;103098.03;;;8.60;95.90
21555;BME280;10938;44.794;-0.676;2023-02-04T00:41:29;103091.28;;;8.49;97.14
21555;BME280;10938;44.794;-0.676;2023-02-04T00:43:54;103093.59;;;8.30;99.72
21555;BME280;10938;44.794;-0.676;2023-02-04T00:46:22;103084.75;;;8.27;98.95
21555;BME280;10938;44.794;-0.676;2023-02-04T00:48:48;103083.38;;;8.33;98.29
21555;BME280;10938;44.794;-0.676;2023-02-04T00:51:13;103095.34;;;8.44;98.31
21555;BME280;10938;44.794;-0.676;2023-02-04T00:53:38;103092.34;;;8.38;99.35
21555;BME280;10938;44.794;-0.676;2023-02-04T00:56:04;103090.22;;;8.45;98.31
21555;BME280;10938;44.794;-0.676;2023-02-04T00:58:29;103088.06;;;8.53;97.70
21555;BME280;10938;44.794;-0.676;2023-02-04T01:00:55;103089.88;;;8.54;97.40
21555;BME280;10938;44.794;-0.676;2023-02-04T01:03:20;103084.75;;;8.55;97.09
21555;BME280;10938;44.794;-0.676;2023-02-04T01:05:46;103082.94;;;8.54;96.80
21555;BME280;10938;44.794;-0.676;2023-02-04T01:08:11;103080.72;;;8.46;97.06
21555;BME280;10938;44.794;-0.676;2023-02-04T01:10:37;103084.13;;;8.30;98.08
21555;BME280;10938;44.794;-0.676;2023-02-04T01:13:02;103080.69;;;8.31;97.34
21555;BME280;10938;44.794;-0.676;2023-02-04T01:15:28;103086.59;;;8.28;98.09
21555;BME280;10938;44.794;-0.676;2023-02-04T01:17:53;103085.00;;;8.31;98.13
21555;BME280;10938;44.794;-0.676;2023-02-04T01:20:18;103085.38;;;8.37;97.90
21555;BME280;10938;44.794;-0.676;2023-02-04T01:22:47;103082.13;;;8.41;96.81
21555;BME280;10938;44.794;-0.676;2023-02-04T01:25:12;103079.44;;;8.39;96.92
21555;BME280;10938;44.794;-0.676;2023-02-04T01:27:37;103082.13;;;8.41;96.32
21555;BME280;10938;44.794;-0.676;2023-02-04T01:30:04;103086.97;;;8.35;97.03
21555;BME280;10938;44.794;-0.676;2023-02-04T01:32:30;103083.94;;;8.42;97.19
21555;BME280;10938;44.794;-0.676;2023-02-04T01:34:55;103086.06;;;8.34;98.06
21555;BME280;10938;44.794;-0.676;2023-02-04T01:37:20;103076.06;;;8.40;97.57
21555;BME280;10938;44.794;-0.676;2023-02-04T01:39:46;103078.72;;;8.42;97.45
21555;BME280;10938;44.794;-0.676;2023-02-04T01:42:11;103074.88;;;8.35;97.01
21555;BME280;10938;44.794;-0.676;2023-02-04T01:44:37;103080.88;;;8.34;96.56
21555;BME280;10938;44.794;-0.676;2023-02-04T01:47:03;103077.78;;;8.26;96.37
21555;BME280;10938;44.794;-0.676;2023-02-04T01:49:29;103075.63;;;8.19;96.75
21555;BME280;10938;44.794;-0.676;2023-02-04T01:51:55;103080.72;;;8.18;96.99
21555;BME280;10938;44.794;-0.676;2023-02-04T01:54:21;103073.66;;;8.15;96.82
21555;BME280;10938;44.794;-0.676;2023-02-04T01:56:48;103077.03;;;8.14;96.68
21555;BME280;10938;44.794;-0.676;2023-02-04T01:59:17;103066.47;;;8.11;96.72
21555;BME280;10938;44.794;-0.676;2023-02-04T02:01:45;103065.31;;;8.06;97.11
21555;BME280;10938;44.794;-0.676;2023-02-04T02:04:31;103072.09;;;8.04;96.75
21555;BME280;10938;44.794;-0.676;2023-02-04T02:06:59;103068.81;;;8.07;96.27
21555;BME280;10938;44.794;-0.676;2023-02-04T02:09:28;103067.59;;;8.02;96.19
21555;BME280;10938;44.794;-0.676;2023-02-04T02:11:54;103067.31;;;7.97;96.67
21555;BME280;10938;44.794;-0.676;2023-02-04T02:14:20;103066.25;;;7.94;96.96
21555;BME280;10938;44.794;-0.676;2023-02-04T02:16:45;103064.72;;;7.97;97.14
21555;BME280;10938;44.794;-0.676;2023-02-04T02:19:15;103065.00;;;8.02;96.62
21555;BME280;10938;44.794;-0.676;2023-02-04T02:21:48;103057.16;;;8.00;96.98
21555;BME280;10938;44.794;-0.676;2023-02-04T02:24:31;103056.13;;;7.98;97.70
21555;BME280;10938;44.794;-0.676;2023-02-04T02:26:59;103057.28;;;7.89;97.85
21555;BME280;10938;44.794;-0.676;2023-02-04T02:29:26;103052.19;;;7.90;97.62
21555;BME280;10938;44.794;-0.676;2023-02-04T02:31:53;103049.78;;;7.93;97.06
21555;BME280;10938;44.794;-0.676;2023-02-04T02:34:22;103044.81;;;7.83;96.83
21555;BME280;10938;44.794;-0.676;2023-02-04T02:36:47;103056.00;;;7.82;97.02
21555;BME280;10938;44.794;-0.676;2023-02-04T02:39:13;103054.13;;;7.80;96.92
21555;BME280;10938;44.794;-0.676;2023-02-04T02:41:41;103049.84;;;7.80;97.29
21555;BME280;10938;44.794;-0.676;2023-02-04T02:44:15;103043.44;;;7.75;96.98
21555;BME280;10938;44.794;-0.676;2023-02-04T02:46:41;103045.06;;;7.73;96.81
21555;BME280;10938;44.794;-0.676;2023-02-04T02:49:13;103046.84;;;7.74;97.12
21555;BME280;10938;44.794;-0.676;2023-02-04T02:51:40;103047.75;;;7.74;97.40
21555;BME280;10938;44.794;-0.676;2023-02-04T02:54:18;103043.44;;;7.75;97.01
21555;BME280;10938;44.794;-0.676;2023-02-04T02:56:45;103050.25;;;7.73;96.04
21555;BME280;10938;44.794;-0.676;2023-02-04T02:59:15;103052.66;;;7.70;96.31
21555;BME280;10938;44.794;-0.676;2023-02-04T03:01:41;103047.06;;;7.64;96.67
21555;BME280;10938;44.794;-0.676;2023-02-04T03:04:08;103054.78;;;7.62;96.61
21555;BME280;10938;44.794;-0.676;2023-02-04T03:06:34;103046.81;;;7.59;96.11
21555;BME280;10938;44.794;-0.676;2023-02-04T03:09:00;103052.78;;;7.58;97.14
21555;BME280;10938;44.794;-0.676;2023-02-04T03:11:25;103054.66;;;7.61;96.03
21555;BME280;10938;44.794;-0.676;2023-02-04T03:13:54;103048.31;;;7.56;96.80
21555;BME280;10938;44.794;-0.676;2023-02-04T03:16:20;103056.81;;;7.53;96.79
21555;BME280;10938;44.794;-0.676;2023-02-04T03:18:46;103052.13;;;7.48;96.68
21555;BME280;10938;44.794;-0.676;2023-02-04T03:21:12;103058.22;;;7.48;96.72
21555;BME280;10938;44.794;-0.676;2023-02-04T03:23:37;103054.44;;;7.43;96.34
21555;BME280;10938;44.794;-0.676;2023-02-04T03:26:04;103056.03;;;7.41;97.31
21555;BME280;10938;44.794;-0.676;2023-02-04T03:28:30;103053.63;;;7.44;96.65
21555;BME280;10938;44.794;-0.676;2023-02-04T03:30:56;103053.16;;;7.37;97.54
21555;BME280;10938;44.794;-0.676;2023-02-04T03:33:26;103053.16;;;7.37;97.21
21555;BME280;10938;44.794;-0.676;2023-02-04T03:35:56;103048.75;;;7.36;97.60
21555;BME280;10938;44.794;-0.676;2023-02-04T03:38:21;103049.75;;;7.38;97.59
21555;BME280;10938;44.794;-0.676;2023-02-04T03:40:47;103045.97;;;7.33;97.28
21555;BME280;10938;44.794;-0.676;2023-02-04T03:43:12;103055.94;;;7.40;96.98
21555;BME280;10938;44.794;-0.676;2023-02-04T03:45:37;103049.75;;;7.38;96.99
21555;BME280;10938;44.794;-0.676;2023-02-04T03:48:03;103057.53;;;7.38;97.43
21555;BME280;10938;44.794;-0.676;2023-02-04T03:50:28;103059.25;;;7.37;96.35
21555;BME280;10938;44.794;-0.676;2023-02-04T03:52:54;103049.56;;;7.35;97.48
21555;BME280;10938;44.794;-0.676;2023-02-04T03:55:19;103058.34;;;7.37;97.53
21555;BME280;10938;44.794;-0.676;2023-02-04T03:57:45;103056.03;;;7.41;97.14
21555;BME280;10938;44.794;-0.676;2023-02-04T04:00:14;103063.91;;;7.43;97.08
21555;BME280;10938;44.794;-0.676;2023-02-04T04:02:40;103054.31;;;7.42;97.22
21555;BME280;10938;44.794;-0.676;2023-02-04T04:05:07;103062.81;;;7.39;96.62
21555;BME280;10938;44.794;-0.676;2023-02-04T04:07:32;103065.94;;;7.34;97.04
21555;BME280;10938;44.794;-0.676;2023-02-04T04:09:58;103064.72;;;7.29;97.28
21555;BME280;10938;44.794;-0.676;2023-02-04T04:12:23;103063.22;;;7.32;97.57
21555;BME280;10938;44.794;-0.676;2023-02-04T04:14:48;103062.25;;;7.30;97.02
21555;BME280;10938;44.794;-0.676;2023-02-04T04:17:14;103059.53;;;7.29;97.04
21555;BME280;10938;44.794;-0.676;2023-02-04T04:19:39;103055.16;;;7.28;96.96
21555;BME280;10938;44.794;-0.676;2023-02-04T04:22:05;103056.66;;;7.24;96.54
21555;BME280;10938;44.794;-0.676;2023-02-04T04:24:30;103050.06;;;7.29;96.90
21555;BME280;10938;44.794;-0.676;2023-02-04T04:26:55;103050.97;;;7.30;96.39
21555;BME280;10938;44.794;-0.676;2023-02-04T04:29:21;103051.56;;;7.25;97.03
21555;BME280;10938;44.794;-0.676;2023-02-04T04:31:46;103049.75;;;7.24;96.63
21555;BME280;10938;44.794;-0.676;2023-02-04T04:34:12;103047.34;;;7.28;96.76
21555;BME280;10938;44.794;-0.676;2023-02-04T04:36:37;103049.16;;;7.29;96.36
21555;BME280;10938;44.794;-0.676;2023-02-04T04:39:03;103048.97;;;7.25;97.29
21555;BME280;10938;44.794;-0.676;2023-02-04T04:41:28;103049.34;;;7.32;96.54
21555;BME280;10938;44.794;-0.676;2023-02-04T04:43:53;103055.34;;;7.31;96.56
21555;BME280;10938;44.794;-0.676;2023-02-04T04:46:19;103048.38;;;7.30;96.39
21555;BME280;10938;44.794;-0.676;2023-02-04T04:48:44;103053.19;;;7.23;95.90
21555;BME280;10938;44.794;-0.676;2023-02-04T04:51:10;103056.56;;;7.22;96.44
21555;BME280;10938;44.794;-0.676;2023-02-04T04:53:35;103062.53;;;7.21;96.60
21555;BME280;10938;44.794;-0.676;2023-02-04T04:56:01;103065.25;;;7.23;96.05
21555;BME280;10938;44.794;-0.676;2023-02-04T04:58:26;103054.25;;;7.14;96.45
21555;BME280;10938;44.794;-0.676;2023-02-04T05:00:52;103062.16;;;7.15;96.73
21555;BME280;10938;44.794;-0.676;2023-02-04T05:03:17;103052.88;;;7.19;96.21
21555;BME280;10938;44.794;-0.676;2023-02-04T05:05:43;103063.63;;;7.25;95.97
21555;BME280;10938;44.794;-0.676;2023-02-04T05:08:08;103059.16;;;7.22;96.76
21555;BME280;10938;44.794;-0.676;2023-02-04T05:10:38;103061.03;;;7.25;95.79
21555;BME280;10938;44.794;-0.676;2023-02-04T05:13:03;103060.88;;;7.09;96.25
21555;BME280;10938;44.794;-0.676;2023-02-04T05:15:29;103064.03;;;7.18;95.70
21555;BME280;10938;44.794;-0.676;2023-02-04T05:17:54;103067.94;;;7.24;95.84
21555;BME280;10938;44.794;-0.676;2023-02-04T05:20:20;103060.25;;;7.26;95.72
21555;BME280;10938;44.794;-0.676;2023-02-04T05:22:45;103073.22;;;7.26;95.45
21555;BME280;10938;44.794;-0.676;2023-02-04T05:25:11;103066.44;;;7.28;95.07
21555;BME280;10938;44.794;-0.676;2023-02-04T05:27:36;103065.53;;;7.28;94.91
21555;BME280;10938;44.794;-0.676;2023-02-04T05:30:02;103067.94;;;7.24;94.85
21555;BME280;10938;44.794;-0.676;2023-02-04T05:32:30;103070.25;;;7.20;95.30
21555;BME280;10938;44.794;-0.676;2023-02-04T05:34:56;103073.13;;;7.24;94.85
21555;BME280;10938;44.794;-0.676;2023-02-04T05:37:21;103072.31;;;7.25;95.21
21555;BME280;10938;44.794;-0.676;2023-02-04T05:39:47;103073.63;;;7.19;94.85
21555;BME280;10938;44.794;-0.676;2023-02-04T05:42:12;103078.03;;;7.20;94.93
21555;BME280;10938;44.794;-0.676;2023-02-04T05:44:37;103079.00;;;7.22;94.82
21555;BME280;10938;44.794;-0.676;2023-02-04T05:47:03;103081.72;;;7.23;94.26
21555;BME280;10938;44.794;-0.676;2023-02-04T05:49:28;103077.22;;;7.21;94.18
21555;BME280;10938;44.794;-0.676;2023-02-04T05:51:54;103077.91;;;7.05;95.06
21555;BME280;10938;44.794;-0.676;2023-02-04T05:54:19;103076.75;;;7.00;95.29
21555;BME280;10938;44.794;-0.676;2023-02-04T05:56:45;103075.72;;;7.11;94.73
21555;BME280;10938;44.794;-0.676;2023-02-04T05:59:11;103078.13;;;7.08;94.20
21555;BME280;10938;44.794;-0.676;2023-02-04T06:01:40;103077.13;;;7.06;94.99
21555;BME280;10938;44.794;-0.676;2023-02-04T06:04:05;103085.13;;;7.09;94.72
21555;BME280;10938;44.794;-0.676;2023-02-04T06:06:31;103090.78;;;7.04;95.04
21555;BME280;10938;44.794;-0.676;2023-02-04T06:08:56;103084.09;;;7.07;94.89
21555;BME280;10938;44.794;-0.676;2023-02-04T06:11:21;103090.28;;;7.09;95.04
21555;BME280;10938;44.794;-0.676;2023-02-04T06:13:47;103100.28;;;7.16;93.99
21555;BME280;10938;44.794;-0.676;2023-02-04T06:16:12;103098.16;;;7.24;94.33
21555;BME280;10938;44.794;-0.676;2023-02-04T06:18:38;103098.47;;;7.29;94.09
21555;BME280;10938;44.794;-0.676;2023-02-04T06:21:03;103089.06;;;7.31;94.38
21555;BME280;10938;44.794;-0.676;2023-02-04T06:23:30;103103.06;;;7.33;93.32
21555;BME280;10938;44.794;-0.676;2023-02-04T06:25:55;103103.25;;;7.22;93.01
21555;BME280;10938;44.794;-0.676;2023-02-04T06:28:21;103109.34;;;7.23;93.51
21555;BME280;10938;44.794;-0.676;2023-02-04T06:30:46;103111.03;;;7.22;93.00
21555;BME280;10938;44.794;-0.676;2023-02-04T06:33:13;103111.03;;;7.22;93.03
21555;BME280;10938;44.794;-0.676;2023-02-04T06:35:39;103113.84;;;7.25;93.37
21555;BME280;10938;44.794;-0.676;2023-02-04T06:38:04;103125.00;;;7.24;93.61
21555;BME280;10938;44.794;-0.676;2023-02-04T06:40:29;103117.31;;;7.26;93.36
21555;BME280;10938;44.794;-0.676;2023-02-04T06:42:55;103116.63;;;7.29;93.41
21555;BME280;10938;44.794;-0.676;2023-02-04T06:45:20;103121.03;;;7.30;92.93
21555;BME280;10938;44.794;-0.676;2023-02-04T06:47:46;103125.63;;;7.34;93.01
21555;BME280;10938;44.794;-0.676;2023-02-04T06:50:13;103119.91;;;7.26;91.29
21555;BME280;10938;44.794;-0.676;2023-02-04T06:52:44;103127.41;;;7.21;92.44
21555;BME280;10938;44.794;-0.676;2023-02-04T06:55:11;103120.13;;;7.16;93.36
21555;BME280;10938;44.794;-0.676;2023-02-04T06:57:37;103124.59;;;7.18;92.85
21555;BME280;10938;44.794;-0.676;2023-02-04T07:00:03;103118.13;;;7.25;92.87
21555;BME280;10938;44.794;-0.676;2023-02-04T07:02:28;103120.00;;;7.28;92.20
21555;BME280;10938;44.794;-0.676;2023-02-04T07:04:54;103115.72;;;7.28;92.53
21555;BME280;10938;44.794;-0.676;2023-02-04T07:07:19;103120.91;;;7.28;92.15
21555;BME280;10938;44.794;-0.676;2023-02-04T07:09:44;103117.00;;;7.21;92.42
21555;BME280;10938;44.794;-0.676;2023-02-04T07:12:13;103116.94;;;7.20;92.35
21555;BME280;10938;44.794;-0.676;2023-02-04T07:14:38;103120.63;;;7.23;92.61
21555;BME280;10938;44.794;-0.676;2023-02-04T07:17:04;103120.19;;;7.31;91.47
21555;BME280;10938;44.794;-0.676;2023-02-04T07:19:29;103113.81;;;7.39;91.56
21555;BME280;10938;44.794;-0.676;2023-02-04T07:21:55;103113.63;;;7.36;91.33
21555;BME280;10938;44.794;-0.676;2023-02-04T07:24:22;103109.16;;;7.33;92.03
21555;BME280;10938;44.794;-0.676;2023-02-04T07:26:48;103111.16;;;7.37;91.55
21555;BME280;10938;44.794;-0.676;2023-02-04T07:29:13;103111.59;;;7.45;91.43
21555;BME280;10938;44.794;-0.676;2023-02-04T07:31:38;103115.72;;;7.82;91.61
21555;BME280;10938;44.794;-0.676;2023-02-04T07:34:16;103110.56;;;8.24;89.60
21555;BME280;10938;44.794;-0.676;2023-02-04T07:36:42;103111.09;;;8.19;88.71
21555;BME280;10938;44.794;-0.676;2023-02-04T07:39:08;103112.06;;;8.06;89.15
21555;BME280;10938;44.794;-0.676;2023-02-04T07:41:33;103107.28;;;7.99;89.00
21555;BME280;10938;44.794;-0.676;2023-02-04T07:43:59;103106.91;;;7.93;88.47
21555;BME280;10938;44.794;-0.676;2023-02-04T07:46:24;103110.31;;;7.92;89.64
21555;BME280;10938;44.794;-0.676;2023-02-04T07:48:50;103112.13;;;7.93;88.33
21555;BME280;10938;44.794;-0.676;2023-02-04T07:51:15;103097.13;;;7.89;88.69
21555;BME280;10938;44.794;-0.676;2023-02-04T07:53:41;103104.75;;;7.86;90.16
21555;BME280;10938;44.794;-0.676;2023-02-04T07:56:07;103110.91;;;7.88;90.68
21555;BME280;10938;44.794;-0.676;2023-02-04T07:58:32;103115.16;;;8.01;90.37
21555;BME280;10938;44.794;-0.676;2023-02-04T08:00:58;103104.81;;;8.15;90.85
21555;BME280;10938;44.794;-0.676;2023-02-04T08:03:23;103103.63;;;8.38;90.05
21555;BME280;10938;44.794;-0.676;2023-02-04T08:05:52;103108.69;;;8.64;88.95
21555;BME280;10938;44.794;-0.676;2023-02-04T08:08:18;103098.81;;;8.88;88.54
21555;BME280;10938;44.794;-0.676;2023-02-04T08:10:43;103105.31;;;9.25;87.40
21555;BME280;10938;44.794;-0.676;2023-02-04T08:13:08;103100.84;;;9.54;87.55
21555;BME280;10938;44.794;-0.676;2023-02-04T08:15:34;103099.31;;;9.57;88.22
21555;BME280;10938;44.794;-0.676;2023-02-04T08:17:59;103092.97;;;9.84;87.69
21555;BME280;10938;44.794;-0.676;2023-02-04T08:20:25;103097.47;;;10.03;87.08
21555;BME280;10938;44.794;-0.676;2023-02-04T08:22:50;103095.19;;;10.09;87.56
21555;BME280;10938;44.794;-0.676;2023-02-04T08:25:16;103100.25;;;10.39;86.70
21555;BME280;10938;44.794;-0.676;2023-02-04T08:27:41;103099.81;;;10.81;85.67
21555;BME280;10938;44.794;-0.676;2023-02-04T08:30:07;103098.44;;;11.05;85.14
21555;BME280;10938;44.794;-0.676;2023-02-04T08:32:33;103111.34;;;11.20;85.70
21555;BME280;10938;44.794;-0.676;2023-02-04T08:34:59;103115.88;;;11.59;83.94
21555;BME280;10938;44.794;-0.676;2023-02-04T08:37:24;103105.28;;;11.38;84.83
21555;BME280;10938;44.794;-0.676;2023-02-04T08:39:49;103112.03;;;11.33;84.69
21555;BME280;10938;44.794;-0.676;2023-02-04T08:42:15;103114.03;;;11.39;85.48
21555;BME280;10938;44.794;-0.676;2023-02-04T08:44:41;103117.69;;;11.43;86.56
21555;BME280;10938;44.794;-0.676;2023-02-04T08:47:07;103118.34;;;11.56;87.03
21555;BME280;10938;44.794;-0.676;2023-02-04T08:49:32;103111.59;;;11.79;86.70
21555;BME280;10938;44.794;-0.676;2023-02-04T08:51:58;103112.63;;;11.82;86.19
21555;BME280;10938;44.794;-0.676;2023-02-04T08:54:23;103116.94;;;12.00;84.47
21555;BME280;10938;44.794;-0.676;2023-02-04T08:56:50;103120.66;;;12.24;83.93
21555;BME280;10938;44.794;-0.676;2023-02-04T08:59:16;103131.00;;;12.42;84.57
21555;BME280;10938;44.794;-0.676;2023-02-04T09:01:41;103120.59;;;12.62;84.59
21555;BME280;10938;44.794;-0.676;2023-02-04T09:04:07;103117.78;;;12.78;85.26
21555;BME280;10938;44.794;-0.676;2023-02-04T09:06:33;103129.94;;;12.97;84.90
21555;BME280;10938;44.794;-0.676;2023-02-04T09:08:58;103127.69;;;13.06;84.72
21555;BME280;10938;44.794;-0.676;2023-02-04T09:11:23;103129.63;;;13.31;83.84
21555;BME280;10938;44.794;-0.676;2023-02-04T09:13:49;103135.16;;;13.38;84.39
21555;BME280;10938;44.794;-0.676;2023-02-04T09:16:14;103139.50;;;13.38;84.06
21555;BME280;10938;44.794;-0.676;2023-02-04T09:18:42;103140.53;;;13.00;86.55
21555;BME280;10938;44.794;-0.676;2023-02-04T09:21:07;103140.38;;;13.16;86.46
21555;BME280;10938;44.794;-0.676;2023-02-04T09:23:33;103136.34;;;13.24;86.79
21555;BME280;10938;44.794;-0.676;2023-02-04T09:25:58;103141.56;;;13.24;87.26
21555;BME280;10938;44.794;-0.676;2023-02-04T09:28:25;103135.72;;;13.09;88.46
21555;BME280;10938;44.794;-0.676;2023-02-04T09:30:51;103138.09;;;13.05;89.03
21555;BME280;10938;44.794;-0.676;2023-02-04T09:33:17;103129.44;;;13.06;89.34
21555;BME280;10938;44.794;-0.676;2023-02-04T09:35:43;103143.88;;;12.56;91.22
21555;BME280;10938;44.794;-0.676;2023-02-04T09:38:08;103131.72;;;12.98;91.05
21555;BME280;10938;44.794;-0.676;2023-02-04T09:40:36;103137.47;;;13.31;90.33
21555;BME280;10938;44.794;-0.676;2023-02-04T09:43:05;103136.03;;;13.37;89.87
21555;BME280;10938;44.794;-0.676;2023-02-04T09:45:34;103143.44;;;13.48;89.14
21555;BME280;10938;44.794;-0.676;2023-02-04T09:48:02;103142.03;;;13.14;90.23
21555;BME280;10938;44.794;-0.676;2023-02-04T09:50:30;103142.88;;;13.13;91.33
21555;BME280;10938;44.794;-0.676;2023-02-04T09:53:01;103139.97;;;13.71;89.25
21555;BME280;10938;44.794;-0.676;2023-02-04T09:55:30;103145.88;;;13.45;90.86
21555;BME280;10938;44.794;-0.676;2023-02-04T09:57:56;103134.13;;;13.56;90.74
21555;BME280;10938;44.794;-0.676;2023-02-04T10:00:24;103135.38;;;13.43;90.79
21555;BME280;10938;44.794;-0.676;2023-02-04T10:02:50;103138.78;;;13.20;92.67
21555;BME280;10938;44.794;-0.676;2023-02-04T10:05:29;103142.75;;;12.91;95.15
21555;BME280;10938;44.794;-0.676;2023-02-04T10:07:55;103151.00;;;12.79;95.06
21555;BME280;10938;44.794;-0.676;2023-02-04T10:10:22;103144.13;;;13.02;94.26
21555;BME280;10938;44.794;-0.676;2023-02-04T10:12:55;103148.19;;;12.75;94.88
21555;BME280;10938;44.794;-0.676;2023-02-04T10:15:21;103154.59;;;12.62;96.11
21555;BME280;10938;44.794;-0.676;2023-02-04T10:17:53;103144.66;;;12.15;100.00
21555;BME280;10938;44.794;-0.676;2023-02-04T10:20:22;103147.03;;;12.68;97.24
21555;BME280;10938;44.794;-0.676;2023-02-04T10:22:53;103141.56;;;12.83;97.53
21555;BME280;10938;44.794;-0.676;2023-02-04T10:25:21;103148.38;;;13.19;96.10
21555;BME280;10938;44.794;-0.676;2023-02-04T10:27:58;103156.31;;;13.21;95.27
21555;BME280;10938;44.794;-0.676;2023-02-04T10:30:29;103152.16;;;12.86;97.61
21555;BME280;10938;44.794;-0.676;2023-02-04T10:32:58;103153.50;;;12.97;96.96
21555;BME280;10938;44.794;-0.676;2023-02-04T10:35:24;103159.91;;;13.24;95.79
21555;BME280;10938;44.794;-0.676;2023-02-04T10:38:03;103161.63;;;13.03;96.67
21555;BME280;10938;44.794;-0.676;2023-02-04T10:40:34;103161.72;;;12.85;97.09
21555;BME280;10938;44.794;-0.676;2023-02-04T10:43:30;103169.75;;;12.69;98.11
21555;BME280;10938;44.794;-0.676;2023-02-04T10:45:57;103159.25;;;13.51;96.25
21555;BME280;10938;44.794;-0.676;2023-02-04T10:48:24;103168.31;;;14.03;93.51
21555;BME280;10938;44.794;-0.676;2023-02-04T10:50:50;103170.66;;;13.73;94.03
21555;BME280;10938;44.794;-0.676;2023-02-04T10:53:18;103166.63;;;14.05;92.89
21555;BME280;10938;44.794;-0.676;2023-02-04T10:56:03;103170.09;;;13.37;95.38
21555;BME280;10938;44.794;-0.676;2023-02-04T10:58:30;103167.28;;;13.12;97.13
21555;BME280;10938;44.794;-0.676;2023-02-04T11:00:58;103169.06;;;13.34;96.61
21555;BME280;10938;44.794;-0.676;2023-02-04T11:03:27;103173.56;;;13.59;95.87
21555;BME280;10938;44.794;-0.676;2023-02-04T11:05:59;103174.63;;;13.21;97.54
21555;BME280;10938;44.794;-0.676;2023-02-04T11:08:33;103171.06;;;13.00;98.38
21555;BME280;10938;44.794;-0.676;2023-02-04T11:11:15;103167.00;;;12.66;100.00
21555;BME280;10938;44.794;-0.676;2023-02-04T11:13:44;103167.09;;;12.88;99.38
21555;BME280;10938;44.794;-0.676;2023-02-04T11:16:23;103163.56;;;12.48;100.00
21555;BME280;10938;44.794;-0.676;2023-02-04T11:19:04;103159.72;;;12.59;100.00
21555;BME280;10938;44.794;-0.676;2023-02-04T11:27:06;103158.47;;;13.10;100.00
21555;BME280;10938;44.794;-0.676;2023-02-04T11:29:36;103158.00;;;12.60;100.00
21555;BME280;10938;44.794;-0.676;2023-02-04T11:32:26;103147.13;;;13.32;99.99
21555;BME280;10938;44.794;-0.676;2023-02-04T11:35:26;103151.22;;;13.25;99.76
21555;BME280;10938;44.794;-0.676;2023-02-04T11:37:53;103147.56;;;12.80;100.00
21555;BME280;10938;44.794;-0.676;2023-02-04T11:42:55;103136.16;;;13.40;100.00
21555;BME280;10938;44.794;-0.676;2023-02-04T11:45:27;103143.88;;;12.96;100.00
21555;BME280;10938;44.794;-0.676;2023-02-04T11:47:56;103141.16;;;12.95;100.00
21555;BME280;10938;44.794;-0.676;2023-02-04T11:50:31;103132.66;;;13.19;100.00
21555;BME280;10938;44.794;-0.676;2023-02-04T11:52:58;103134.09;;;13.33;100.00
21555;BME280;10938;44.794;-0.676;2023-02-04T11:55:28;103131.56;;;12.74;100.00
21555;BME280;10938;44.794;-0.676;2023-02-04T11:57:55;103131.59;;;12.95;100.00
21555;BME280;10938;44.794;-0.676;2023-02-04T12:00:28;103127.63;;;13.46;100.00
21555;BME280;10938;44.794;-0.676;2023-02-04T12:03:02;103136.59;;;13.30;100.00
21555;BME280;10938;44.794;-0.676;2023-02-04T12:05:38;103132.38;;;13.78;100.00
21555;BME280;10938;44.794;-0.676;2023-02-04T12:10:48;103128.72;;;14.43;97.42
21555;BME280;10938;44.794;-0.676;2023-02-04T12:13:22;103116.56;;;14.45;96.19
21555;BME280;10938;44.794;-0.676;2023-02-04T12:15:54;103118.59;;;14.06;98.51
21555;BME280;10938;44.794;-0.676;2023-02-04T12:18:22;103122.47;;;13.70;100.00
21555;BME280;10938;44.794;-0.676;2023-02-04T12:21:06;103108.88;;;14.51;97.84
21555;BME280;10938;44.794;-0.676;2023-02-04T12:23:37;103106.31;;;14.53;96.82
21555;BME280;10938;44.794;-0.676;2023-02-04T12:26:05;103106.09;;;14.23;98.82
21555;BME280;10938;44.794;-0.676;2023-02-04T12:28:34;103109.38;;;14.65;97.15
21555;BME280;10938;44.794;-0.676;2023-02-04T12:31:15;103091.00;;;14.90;95.73
21555;BME280;10938;44.794;-0.676;2023-02-04T15:11:20;103080.91;;;13.14;100.00
21555;BME280;10938;44.794;-0.676;2023-02-04T15:14:22;103090.63;;;13.16;100.00
21555;BME280;10938;44.794;-0.676;2023-02-04T15:17:26;103087.66;;;12.88;100.00
21555;BME280;10938;44.794;-0.676;2023-02-04T15:23:47;103100.28;;;12.98;100.00
21555;BME280;10938;44.794;-0.676;2023-02-04T15:27:13;103081.63;;;13.32;100.00
21555;BME280;10938;44.794;-0.676;2023-02-04T15:29:41;103088.88;;;12.75;100.00
21555;BME280;10938;44.794;-0.676;2023-02-04T15:32:19;103092.63;;;13.03;100.00
21555;BME280;10938;44.794;-0.676;2023-02-04T15:41:57;103092.50;;;12.79;100.00
21555;BME280;10938;44.794;-0.676;2023-02-04T15:44:40;103095.50;;;13.52;100.00
21555;BME280;10938;44.794;-0.676;2023-02-04T15:47:17;103104.16;;;13.71;100.00